sensor_id;sensor_type;location;lat;lon;timestamp;temperature;humidity
78571;SHT31;67861;51.966;5.672;2024-03-06T00:00:06;10.1;67.6
78571;SHT31;67861;51.966;5.672;2024-03-06T00:02:36;10.0;68.0
78571;SHT31;67861;51.966;5.672;2024-03-06T00:05:08;10.0;67.9
78571;SHT31;67861;51.966;5.672;2024-03-06T00:07:36;10.0;67.6
78571;SHT31;67861;51.966;5.672;2024-03-06T00:10:05;10.0;67.2
78571;SHT31;67861;51.966;5.672;2024-03-06T00:12:36;9.9;67.2
78571;SHT31;67861;51.966;5.672;2024-03-06T00:15:05;9.9;67.5
78571;SHT31;67861;51.966;5.672;2024-03-06T00:17:34;9.9;66.7
78571;SHT31;67861;51.966;5.672;2024-03-06T00:20:03;9.9;67.4
78571;SHT31;67861;51.966;5.672;2024-03-06T00:22:35;9.9;67.0
78571;SHT31;67861;51.966;5.672;2024-03-06T00:25:04;9.9;66.7
78571;SHT31;67861;51.966;5.672;2024-03-06T00:27:32;9.9;66.7
78571;SHT31;67861;51.966;5.672;2024-03-06T00:30:02;9.8;66.3
78571;SHT31;67861;51.966;5.672;2024-03-06T00:32:30;9.8;65.6
78571;SHT31;67861;51.966;5.672;2024-03-06T00:34:59;9.8;66.3
78571;SHT31;67861;51.966;5.672;2024-03-06T00:37:27;9.8;66.2
78571;SHT31;67861;51.966;5.672;2024-03-06T00:39:56;9.8;66.6
78571;SHT31;67861;51.966;5.672;2024-03-06T00:42:24;9.8;65.9
78571;SHT31;67861;51.966;5.672;2024-03-06T00:44:52;9.7;66.1
78571;SHT31;67861;51.966;5.672;2024-03-06T00:47:21;9.7;65.4
78571;SHT31;67861;51.966;5.672;2024-03-06T00:49:49;9.7;65.3
78571;SHT31;67861;51.966;5.672;2024-03-06T00:52:18;9.7;65.5
78571;SHT31;67861;51.966;5.672;2024-03-06T00:54:46;9.7;65.7
78571;SHT31;67861;51.966;5.672;2024-03-06T00:57:15;9.6;65.4
78571;SHT31;67861;51.966;5.672;2024-03-06T00:59:43;9.6;65.5
78571;SHT31;67861;51.966;5.672;2024-03-06T01:02:12;9.6;65.3
78571;SHT31;67861;51.966;5.672;2024-03-06T01:04:40;9.6;65.1
78571;SHT31;67861;51.966;5.672;2024-03-06T01:07:09;9.6;65.1
78571;SHT31;67861;51.966;5.672;2024-03-06T01:09:37;9.5;65.4
78571;SHT31;67861;51.966;5.672;2024-03-06T01:12:06;9.5;65.8
78571;SHT31;67861;51.966;5.672;2024-03-06T01:14:34;9.5;65.3
78571;SHT31;67861;51.966;5.672;2024-03-06T01:17:03;9.5;65.1
78571;SHT31;67861;51.966;5.672;2024-03-06T01:19:31;9.5;65.0
78571;SHT31;67861;51.966;5.672;2024-03-06T01:22:00;9.5;64.7
78571;SHT31;67861;51.966;5.672;2024-03-06T01:24:28;9.4;64.1
78571;SHT31;67861;51.966;5.672;2024-03-06T01:26:57;9.4;64.5
78571;SHT31;67861;51.966;5.672;2024-03-06T01:29:28;9.4;64.5
78571;SHT31;67861;51.966;5.672;2024-03-06T01:31:57;9.4;64.5
78571;SHT31;67861;51.966;5.672;2024-03-06T01:34:26;9.3;64.6
78571;SHT31;67861;51.966;5.672;2024-03-06T01:36:55;9.3;65.0
78571;SHT31;67861;51.966;5.672;2024-03-06T01:39:24;9.3;65.2
78571;SHT31;67861;51.966;5.672;2024-03-06T01:41:52;9.2;65.1
78571;SHT31;67861;51.966;5.672;2024-03-06T01:44:21;9.2;65.2
78571;SHT31;67861;51.966;5.672;2024-03-06T01:46:49;9.2;65.2
78571;SHT31;67861;51.966;5.672;2024-03-06T01:49:18;9.2;65.3
78571;SHT31;67861;51.966;5.672;2024-03-06T01:51:50;9.1;65.3
78571;SHT31;67861;51.966;5.672;2024-03-06T01:54:21;9.1;65.0
78571;SHT31;67861;51.966;5.672;2024-03-06T01:56:53;9.1;64.6
78571;SHT31;67861;51.966;5.672;2024-03-06T01:59:25;9.1;64.7
78571;SHT31;67861;51.966;5.672;2024-03-06T02:01:54;9.0;64.9
78571;SHT31;67861;51.966;5.672;2024-03-06T02:04:24;9.0;64.8
78571;SHT31;67861;51.966;5.672;2024-03-06T02:06:54;9.0;64.6
78571;SHT31;67861;51.966;5.672;2024-03-06T02:09:23;9.0;64.4
78571;SHT31;67861;51.966;5.672;2024-03-06T02:11:52;8.9;64.7
78571;SHT31;67861;51.966;5.672;2024-03-06T02:14:20;8.9;64.7
78571;SHT31;67861;51.966;5.672;2024-03-06T02:16:49;8.9;64.6
78571;SHT31;67861;51.966;5.672;2024-03-06T02:19:17;8.9;64.9
78571;SHT31;67861;51.966;5.672;2024-03-06T02:21:46;8.8;64.9
78571;SHT31;67861;51.966;5.672;2024-03-06T02:24:15;8.8;64.5
78571;SHT31;67861;51.966;5.672;2024-03-06T02:26:43;8.8;64.2
78571;SHT31;67861;51.966;5.672;2024-03-06T02:29:12;8.8;63.9
78571;SHT31;67861;51.966;5.672;2024-03-06T02:31:41;8.8;64.1
78571;SHT31;67861;51.966;5.672;2024-03-06T02:34:09;8.7;64.6
78571;SHT31;67861;51.966;5.672;2024-03-06T02:36:37;8.7;64.7
78571;SHT31;67861;51.966;5.672;2024-03-06T02:39:06;8.7;64.5
78571;SHT31;67861;51.966;5.672;2024-03-06T02:41:35;8.6;64.6
78571;SHT31;67861;51.966;5.672;2024-03-06T02:44:06;8.6;64.9
78571;SHT31;67861;51.966;5.672;2024-03-06T02:46:35;8.6;65.1
78571;SHT31;67861;51.966;5.672;2024-03-06T02:49:03;8.6;65.4
78571;SHT31;67861;51.966;5.672;2024-03-06T02:51:32;8.5;65.5
78571;SHT31;67861;51.966;5.672;2024-03-06T02:54:01;8.5;66.9
78571;SHT31;67861;51.966;5.672;2024-03-06T02:56:32;8.5;68.5
78571;SHT31;67861;51.966;5.672;2024-03-06T02:59:01;8.5;69.5
78571;SHT31;67861;51.966;5.672;2024-03-06T03:01:30;8.5;69.4
78571;SHT31;67861;51.966;5.672;2024-03-06T03:04:00;8.4;69.0
78571;SHT31;67861;51.966;5.672;2024-03-06T03:06:28;8.4;68.2
78571;SHT31;67861;51.966;5.672;2024-03-06T03:08:57;8.4;68.2
78571;SHT31;67861;51.966;5.672;2024-03-06T03:11:25;8.4;68.6
78571;SHT31;67861;51.966;5.672;2024-03-06T03:13:54;8.5;68.4
78571;SHT31;67861;51.966;5.672;2024-03-06T03:16:25;8.5;68.1
78571;SHT31;67861;51.966;5.672;2024-03-06T03:18:53;8.5;68.8
78571;SHT31;67861;51.966;5.672;2024-03-06T03:21:22;8.5;68.9
78571;SHT31;67861;51.966;5.672;2024-03-06T03:23:50;8.5;68.2
78571;SHT31;67861;51.966;5.672;2024-03-06T03:26:20;8.5;68.4
78571;SHT31;67861;51.966;5.672;2024-03-06T03:28:49;8.5;68.2
78571;SHT31;67861;51.966;5.672;2024-03-06T03:31:17;8.5;67.6
78571;SHT31;67861;51.966;5.672;2024-03-06T03:33:47;8.5;67.4
78571;SHT31;67861;51.966;5.672;2024-03-06T03:36:17;8.5;67.7
78571;SHT31;67861;51.966;5.672;2024-03-06T03:38:46;8.5;68.4
78571;SHT31;67861;51.966;5.672;2024-03-06T03:41:14;8.5;69.1
78571;SHT31;67861;51.966;5.672;2024-03-06T03:43:43;8.5;68.8
78571;SHT31;67861;51.966;5.672;2024-03-06T03:46:12;8.5;68.6
78571;SHT31;67861;51.966;5.672;2024-03-06T03:48:41;8.5;68.5
78571;SHT31;67861;51.966;5.672;2024-03-06T03:51:09;8.5;68.3
78571;SHT31;67861;51.966;5.672;2024-03-06T03:53:40;8.5;68.0
78571;SHT31;67861;51.966;5.672;2024-03-06T03:56:09;8.5;67.6
78571;SHT31;67861;51.966;5.672;2024-03-06T03:58:37;8.5;67.3
78571;SHT31;67861;51.966;5.672;2024-03-06T04:01:06;8.5;66.6
78571;SHT31;67861;51.966;5.672;2024-03-06T04:03:34;8.5;66.1
78571;SHT31;67861;51.966;5.672;2024-03-06T04:06:05;8.5;65.9
78571;SHT31;67861;51.966;5.672;2024-03-06T04:08:34;8.5;65.9
78571;SHT31;67861;51.966;5.672;2024-03-06T04:11:04;8.5;65.5
78571;SHT31;67861;51.966;5.672;2024-03-06T04:13:35;8.5;65.8
78571;SHT31;67861;51.966;5.672;2024-03-06T04:16:05;8.5;65.8
78571;SHT31;67861;51.966;5.672;2024-03-06T04:18:34;8.4;65.8
78571;SHT31;67861;51.966;5.672;2024-03-06T04:21:04;8.4;65.5
78571;SHT31;67861;51.966;5.672;2024-03-06T04:23:33;8.4;64.9
78571;SHT31;67861;51.966;5.672;2024-03-06T04:26:02;8.4;65.0
78571;SHT31;67861;51.966;5.672;2024-03-06T04:28:32;8.4;64.5
78571;SHT31;67861;51.966;5.672;2024-03-06T04:31:00;8.4;64.5
78571;SHT31;67861;51.966;5.672;2024-03-06T04:33:29;8.4;64.3
78571;SHT31;67861;51.966;5.672;2024-03-06T04:35:57;8.4;64.7
78571;SHT31;67861;51.966;5.672;2024-03-06T04:38:25;8.3;65.5
78571;SHT31;67861;51.966;5.672;2024-03-06T04:40:55;8.3;65.7
78571;SHT31;67861;51.966;5.672;2024-03-06T04:43:24;8.3;65.2
78571;SHT31;67861;51.966;5.672;2024-03-06T04:45:52;8.3;64.9
78571;SHT31;67861;51.966;5.672;2024-03-06T04:48:21;8.2;64.6
78571;SHT31;67861;51.966;5.672;2024-03-06T04:50:49;8.2;64.6
78571;SHT31;67861;51.966;5.672;2024-03-06T04:53:18;8.2;64.7
78571;SHT31;67861;51.966;5.672;2024-03-06T04:55:47;8.1;64.7
78571;SHT31;67861;51.966;5.672;2024-03-06T04:58:15;8.1;64.8
78571;SHT31;67861;51.966;5.672;2024-03-06T05:00:45;8.1;64.6
78571;SHT31;67861;51.966;5.672;2024-03-06T05:03:14;8.0;64.7
78571;SHT31;67861;51.966;5.672;2024-03-06T05:05:43;8.0;65.1
78571;SHT31;67861;51.966;5.672;2024-03-06T05:08:11;8.0;64.9
78571;SHT31;67861;51.966;5.672;2024-03-06T05:10:40;7.9;65.1
78571;SHT31;67861;51.966;5.672;2024-03-06T05:13:09;7.9;64.9
78571;SHT31;67861;51.966;5.672;2024-03-06T05:15:37;7.9;65.3
78571;SHT31;67861;51.966;5.672;2024-03-06T05:18:06;7.9;65.5
78571;SHT31;67861;51.966;5.672;2024-03-06T05:20:35;7.9;65.9
78571;SHT31;67861;51.966;5.672;2024-03-06T05:23:04;7.8;65.9
78571;SHT31;67861;51.966;5.672;2024-03-06T05:25:33;7.8;66.2
78571;SHT31;67861;51.966;5.672;2024-03-06T05:28:01;7.8;66.3
78571;SHT31;67861;51.966;5.672;2024-03-06T05:30:30;7.8;66.3
78571;SHT31;67861;51.966;5.672;2024-03-06T05:32:59;7.8;66.5
78571;SHT31;67861;51.966;5.672;2024-03-06T05:35:27;7.8;66.8
78571;SHT31;67861;51.966;5.672;2024-03-06T05:37:56;7.8;67.6
78571;SHT31;67861;51.966;5.672;2024-03-06T05:40:24;7.8;67.6
78571;SHT31;67861;51.966;5.672;2024-03-06T05:42:52;7.8;67.6
78571;SHT31;67861;51.966;5.672;2024-03-06T05:45:21;7.8;67.3
78571;SHT31;67861;51.966;5.672;2024-03-06T05:47:49;7.8;67.4
78571;SHT31;67861;51.966;5.672;2024-03-06T05:50:18;7.7;67.1
78571;SHT31;67861;51.966;5.672;2024-03-06T05:52:46;7.7;67.2
78571;SHT31;67861;51.966;5.672;2024-03-06T05:55:15;7.7;67.2
78571;SHT31;67861;51.966;5.672;2024-03-06T05:57:43;7.7;67.8
78571;SHT31;67861;51.966;5.672;2024-03-06T06:00:14;7.7;67.5
78571;SHT31;67861;51.966;5.672;2024-03-06T06:02:44;7.7;67.2
78571;SHT31;67861;51.966;5.672;2024-03-06T06:05:15;7.7;67.9
78571;SHT31;67861;51.966;5.672;2024-03-06T06:07:46;7.6;68.3
78571;SHT31;67861;51.966;5.672;2024-03-06T06:10:15;7.6;69.6
78571;SHT31;67861;51.966;5.672;2024-03-06T06:12:43;7.6;70.5
78571;SHT31;67861;51.966;5.672;2024-03-06T06:15:12;7.6;70.6
78571;SHT31;67861;51.966;5.672;2024-03-06T06:17:41;7.6;70.6
78571;SHT31;67861;51.966;5.672;2024-03-06T06:20:12;7.6;70.8
78571;SHT31;67861;51.966;5.672;2024-03-06T06:22:42;7.6;70.7
78571;SHT31;67861;51.966;5.672;2024-03-06T06:25:11;7.6;72.4
78571;SHT31;67861;51.966;5.672;2024-03-06T06:27:39;7.6;73.7
78571;SHT31;67861;51.966;5.672;2024-03-06T06:30:08;7.7;74.3
78571;SHT31;67861;51.966;5.672;2024-03-06T06:32:38;7.7;74.0
78571;SHT31;67861;51.966;5.672;2024-03-06T06:35:07;7.7;74.0
78571;SHT31;67861;51.966;5.672;2024-03-06T06:37:35;7.7;74.4
78571;SHT31;67861;51.966;5.672;2024-03-06T06:40:04;7.8;74.2
78571;SHT31;67861;51.966;5.672;2024-03-06T06:42:34;7.8;74.0
78571;SHT31;67861;51.966;5.672;2024-03-06T06:45:03;7.9;73.6
78571;SHT31;67861;51.966;5.672;2024-03-06T06:47:34;7.9;73.7
78571;SHT31;67861;51.966;5.672;2024-03-06T06:50:02;7.9;73.5
78571;SHT31;67861;51.966;5.672;2024-03-06T06:52:32;8.0;73.2
78571;SHT31;67861;51.966;5.672;2024-03-06T06:55:01;8.0;72.9
78571;SHT31;67861;51.966;5.672;2024-03-06T06:57:30;8.0;72.6
78571;SHT31;67861;51.966;5.672;2024-03-06T07:00:00;8.0;72.0
78571;SHT31;67861;51.966;5.672;2024-03-06T07:02:29;8.0;71.6
78571;SHT31;67861;51.966;5.672;2024-03-06T07:04:58;8.1;71.5
78571;SHT31;67861;51.966;5.672;2024-03-06T07:07:27;8.1;71.2
78571;SHT31;67861;51.966;5.672;2024-03-06T07:09:55;8.1;70.9
78571;SHT31;67861;51.966;5.672;2024-03-06T07:12:24;8.1;70.6
78571;SHT31;67861;51.966;5.672;2024-03-06T07:14:53;8.1;70.4
78571;SHT31;67861;51.966;5.672;2024-03-06T07:17:22;8.1;70.4
78571;SHT31;67861;51.966;5.672;2024-03-06T07:19:50;8.1;70.2
78571;SHT31;67861;51.966;5.672;2024-03-06T07:22:19;8.1;70.3
78571;SHT31;67861;51.966;5.672;2024-03-06T07:24:48;8.0;70.5
78571;SHT31;67861;51.966;5.672;2024-03-06T07:27:17;8.0;70.6
78571;SHT31;67861;51.966;5.672;2024-03-06T07:29:46;8.0;70.6
78571;SHT31;67861;51.966;5.672;2024-03-06T07:32:15;8.0;70.3
78571;SHT31;67861;51.966;5.672;2024-03-06T07:34:43;8.0;70.2
78571;SHT31;67861;51.966;5.672;2024-03-06T07:37:12;8.0;70.0
78571;SHT31;67861;51.966;5.672;2024-03-06T07:39:41;8.0;70.2
78571;SHT31;67861;51.966;5.672;2024-03-06T07:42:09;8.0;70.3
78571;SHT31;67861;51.966;5.672;2024-03-06T07:44:39;7.9;70.7
78571;SHT31;67861;51.966;5.672;2024-03-06T07:47:07;7.9;70.6
78571;SHT31;67861;51.966;5.672;2024-03-06T07:49:36;7.9;70.9
78571;SHT31;67861;51.966;5.672;2024-03-06T07:52:05;7.9;71.2
78571;SHT31;67861;51.966;5.672;2024-03-06T07:54:33;7.9;71.6
78571;SHT31;67861;51.966;5.672;2024-03-06T07:57:02;7.9;71.3
78571;SHT31;67861;51.966;5.672;2024-03-06T07:59:31;7.9;71.4
78571;SHT31;67861;51.966;5.672;2024-03-06T08:02:00;7.9;71.7
78571;SHT31;67861;51.966;5.672;2024-03-06T08:04:28;7.9;72.2
78571;SHT31;67861;51.966;5.672;2024-03-06T08:06:57;7.9;72.3
78571;SHT31;67861;51.966;5.672;2024-03-06T08:09:25;7.9;72.3
78571;SHT31;67861;51.966;5.672;2024-03-06T08:11:55;8.0;72.6
78571;SHT31;67861;51.966;5.672;2024-03-06T08:14:23;8.0;72.7
78571;SHT31;67861;51.966;5.672;2024-03-06T08:16:51;8.0;72.9
78571;SHT31;67861;51.966;5.672;2024-03-06T08:19:20;8.1;72.8
78571;SHT31;67861;51.966;5.672;2024-03-06T08:21:51;8.1;72.7
78571;SHT31;67861;51.966;5.672;2024-03-06T08:24:19;8.1;72.7
78571;SHT31;67861;51.966;5.672;2024-03-06T08:26:48;8.1;73.0
78571;SHT31;67861;51.966;5.672;2024-03-06T08:29:16;8.2;73.5
78571;SHT31;67861;51.966;5.672;2024-03-06T08:31:45;8.2;73.5
78571;SHT31;67861;51.966;5.672;2024-03-06T08:34:14;8.3;73.8
78571;SHT31;67861;51.966;5.672;2024-03-06T08:36:43;8.3;74.1
78571;SHT31;67861;51.966;5.672;2024-03-06T08:39:13;8.4;74.2
78571;SHT31;67861;51.966;5.672;2024-03-06T08:41:42;8.4;74.0
78571;SHT31;67861;51.966;5.672;2024-03-06T08:44:11;8.5;74.4
78571;SHT31;67861;51.966;5.672;2024-03-06T08:46:39;8.5;74.5
78571;SHT31;67861;51.966;5.672;2024-03-06T08:49:08;8.6;74.2
78571;SHT31;67861;51.966;5.672;2024-03-06T08:51:37;8.6;74.2
78571;SHT31;67861;51.966;5.672;2024-03-06T08:54:05;8.7;74.1
78571;SHT31;67861;51.966;5.672;2024-03-06T08:56:36;8.7;73.8
78571;SHT31;67861;51.966;5.672;2024-03-06T08:59:05;8.8;73.8
78571;SHT31;67861;51.966;5.672;2024-03-06T09:01:33;8.8;73.5
78571;SHT31;67861;51.966;5.672;2024-03-06T09:04:02;8.9;73.5
78571;SHT31;67861;51.966;5.672;2024-03-06T09:06:30;8.9;74.1
78571;SHT31;67861;51.966;5.672;2024-03-06T09:08:58;9.0;73.8
78571;SHT31;67861;51.966;5.672;2024-03-06T09:11:27;9.0;73.5
78571;SHT31;67861;51.966;5.672;2024-03-06T09:13:55;9.0;73.7
78571;SHT31;67861;51.966;5.672;2024-03-06T09:16:24;9.1;73.7
78571;SHT31;67861;51.966;5.672;2024-03-06T09:18:53;9.1;73.9
78571;SHT31;67861;51.966;5.672;2024-03-06T09:21:21;9.1;73.8
78571;SHT31;67861;51.966;5.672;2024-03-06T09:23:50;9.2;73.9
78571;SHT31;67861;51.966;5.672;2024-03-06T09:26:19;9.2;74.4
78571;SHT31;67861;51.966;5.672;2024-03-06T09:28:47;9.3;73.7
78571;SHT31;67861;51.966;5.672;2024-03-06T09:31:16;9.3;74.2
78571;SHT31;67861;51.966;5.672;2024-03-06T09:33:47;9.4;74.0
78571;SHT31;67861;51.966;5.672;2024-03-06T09:36:15;9.4;74.1
78571;SHT31;67861;51.966;5.672;2024-03-06T09:38:44;9.5;73.8
78571;SHT31;67861;51.966;5.672;2024-03-06T09:41:13;9.6;74.4
78571;SHT31;67861;51.966;5.672;2024-03-06T09:43:43;9.6;74.4
78571;SHT31;67861;51.966;5.672;2024-03-06T09:46:15;9.7;74.2
78571;SHT31;67861;51.966;5.672;2024-03-06T09:48:46;9.8;73.3
78571;SHT31;67861;51.966;5.672;2024-03-06T09:51:15;9.8;72.2
78571;SHT31;67861;51.966;5.672;2024-03-06T09:53:44;9.9;71.9
78571;SHT31;67861;51.966;5.672;2024-03-06T09:56:15;9.9;71.7
78571;SHT31;67861;51.966;5.672;2024-03-06T09:58:45;9.9;71.9
78571;SHT31;67861;51.966;5.672;2024-03-06T10:01:14;9.9;72.5
78571;SHT31;67861;51.966;5.672;2024-03-06T10:03:43;10.0;71.8
78571;SHT31;67861;51.966;5.672;2024-03-06T10:06:13;10.0;72.3
78571;SHT31;67861;51.966;5.672;2024-03-06T10:08:44;10.0;72.5
78571;SHT31;67861;51.966;5.672;2024-03-06T10:11:13;10.0;72.3
78571;SHT31;67861;51.966;5.672;2024-03-06T10:13:41;10.1;72.5
78571;SHT31;67861;51.966;5.672;2024-03-06T10:16:10;10.1;71.4
78571;SHT31;67861;51.966;5.672;2024-03-06T10:18:40;10.1;71.3
78571;SHT31;67861;51.966;5.672;2024-03-06T10:21:09;10.1;72.5
78571;SHT31;67861;51.966;5.672;2024-03-06T10:23:37;10.2;72.5
78571;SHT31;67861;51.966;5.672;2024-03-06T10:26:07;10.2;71.7
78571;SHT31;67861;51.966;5.672;2024-03-06T10:28:46;10.2;72.4
78571;SHT31;67861;51.966;5.672;2024-03-06T10:31:26;10.3;71.9
78571;SHT31;67861;51.966;5.672;2024-03-06T10:33:50;10.3;71.3
78571;SHT31;67861;51.966;5.672;2024-03-06T10:36:20;10.3;70.9
78571;SHT31;67861;51.966;5.672;2024-03-06T10:38:51;10.3;72.0
78571;SHT31;67861;51.966;5.672;2024-03-06T10:41:23;10.3;72.7
78571;SHT31;67861;51.966;5.672;2024-03-06T10:43:55;10.4;71.4
78571;SHT31;67861;51.966;5.672;2024-03-06T10:46:27;10.4;71.2
78571;SHT31;67861;51.966;5.672;2024-03-06T10:48:57;10.5;71.7
78571;SHT31;67861;51.966;5.672;2024-03-06T10:51:28;10.5;71.7
78571;SHT31;67861;51.966;5.672;2024-03-06T10:53:59;10.6;71.5
78571;SHT31;67861;51.966;5.672;2024-03-06T10:56:32;10.6;71.0
78571;SHT31;67861;51.966;5.672;2024-03-06T10:59:01;10.7;72.6
78571;SHT31;67861;51.966;5.672;2024-03-06T11:01:32;10.7;71.7
78571;SHT31;67861;51.966;5.672;2024-03-06T11:04:01;10.8;71.7
78571;SHT31;67861;51.966;5.672;2024-03-06T11:06:31;10.8;71.4
78571;SHT31;67861;51.966;5.672;2024-03-06T11:09:00;10.9;71.4
78571;SHT31;67861;51.966;5.672;2024-03-06T11:11:30;10.9;70.3
78571;SHT31;67861;51.966;5.672;2024-03-06T11:14:05;11.0;70.7
78571;SHT31;67861;51.966;5.672;2024-03-06T11:16:57;11.0;69.7
78571;SHT31;67861;51.966;5.672;2024-03-06T11:19:26;11.1;70.1
78571;SHT31;67861;51.966;5.672;2024-03-06T11:21:55;11.1;69.3
78571;SHT31;67861;51.966;5.672;2024-03-06T11:24:34;11.1;68.7
78571;SHT31;67861;51.966;5.672;2024-03-06T11:27:04;11.2;69.2
78571;SHT31;67861;51.966;5.672;2024-03-06T11:30:08;11.2;70.2
78571;SHT31;67861;51.966;5.672;2024-03-06T11:32:58;11.3;71.9
78571;SHT31;67861;51.966;5.672;2024-03-06T11:35:27;11.4;71.5
78571;SHT31;67861;51.966;5.672;2024-03-06T11:37:56;11.5;70.0
78571;SHT31;67861;51.966;5.672;2024-03-06T11:40:25;11.6;69.8
78571;SHT31;67861;51.966;5.672;2024-03-06T11:42:54;11.7;69.6
78571;SHT31;67861;51.966;5.672;2024-03-06T11:45:22;11.8;69.8
78571;SHT31;67861;51.966;5.672;2024-03-06T11:47:59;11.9;69.2
78571;SHT31;67861;51.966;5.672;2024-03-06T11:50:28;12.0;68.9
78571;SHT31;67861;51.966;5.672;2024-03-06T11:52:58;12.1;69.7
78571;SHT31;67861;51.966;5.672;2024-03-06T11:55:26;12.2;69.5
78571;SHT31;67861;51.966;5.672;2024-03-06T11:57:55;12.4;67.9
78571;SHT31;67861;51.966;5.672;2024-03-06T12:00:24;12.5;67.4
78571;SHT31;67861;51.966;5.672;2024-03-06T12:02:53;12.6;66.3
78571;SHT31;67861;51.966;5.672;2024-03-06T12:05:22;12.6;66.0
78571;SHT31;67861;51.966;5.672;2024-03-06T12:07:55;12.7;66.6
78571;SHT31;67861;51.966;5.672;2024-03-06T12:10:23;12.7;66.6
78571;SHT31;67861;51.966;5.672;2024-03-06T12:12:52;12.8;65.8
78571;SHT31;67861;51.966;5.672;2024-03-06T12:15:20;12.9;65.7
78571;SHT31;67861;51.966;5.672;2024-03-06T12:17:52;12.9;65.3
78571;SHT31;67861;51.966;5.672;2024-03-06T12:20:21;13.0;64.6
78571;SHT31;67861;51.966;5.672;2024-03-06T12:22:51;13.0;65.1
78571;SHT31;67861;51.966;5.672;2024-03-06T12:25:20;13.1;65.9
78571;SHT31;67861;51.966;5.672;2024-03-06T12:27:51;13.1;64.6
78571;SHT31;67861;51.966;5.672;2024-03-06T12:30:22;13.2;65.0
78571;SHT31;67861;51.966;5.672;2024-03-06T12:32:58;13.3;65.4
78571;SHT31;67861;51.966;5.672;2024-03-06T12:35:31;13.4;64.6
78571;SHT31;67861;51.966;5.672;2024-03-06T12:38:00;13.5;65.2
78571;SHT31;67861;51.966;5.672;2024-03-06T12:40:30;13.6;64.2
78571;SHT31;67861;51.966;5.672;2024-03-06T12:42:59;13.7;62.4
78571;SHT31;67861;51.966;5.672;2024-03-06T12:45:29;13.8;63.8
78571;SHT31;67861;51.966;5.672;2024-03-06T12:47:57;13.9;63.0
78571;SHT31;67861;51.966;5.672;2024-03-06T12:50:26;14.0;63.6
78571;SHT31;67861;51.966;5.672;2024-03-06T12:52:54;14.1;63.4
78571;SHT31;67861;51.966;5.672;2024-03-06T12:55:23;14.2;61.8
78571;SHT31;67861;51.966;5.672;2024-03-06T12:57:52;14.3;62.2
78571;SHT31;67861;51.966;5.672;2024-03-06T13:00:21;14.4;60.4
78571;SHT31;67861;51.966;5.672;2024-03-06T13:02:50;14.4;59.9
78571;SHT31;67861;51.966;5.672;2024-03-06T13:05:19;14.5;60.6
78571;SHT31;67861;51.966;5.672;2024-03-06T13:07:47;14.6;60.9
78571;SHT31;67861;51.966;5.672;2024-03-06T13:10:16;14.7;60.3
78571;SHT31;67861;51.966;5.672;2024-03-06T13:12:45;14.8;61.0
78571;SHT31;67861;51.966;5.672;2024-03-06T13:15:13;14.9;59.9
78571;SHT31;67861;51.966;5.672;2024-03-06T13:17:42;15.0;60.2
78571;SHT31;67861;51.966;5.672;2024-03-06T13:20:11;15.1;58.8
78571;SHT31;67861;51.966;5.672;2024-03-06T13:22:40;15.1;57.8
78571;SHT31;67861;51.966;5.672;2024-03-06T13:25:10;15.2;58.6
78571;SHT31;67861;51.966;5.672;2024-03-06T13:27:39;15.3;58.1
78571;SHT31;67861;51.966;5.672;2024-03-06T13:30:08;15.4;59.0
78571;SHT31;67861;51.966;5.672;2024-03-06T13:32:36;15.4;58.5
78571;SHT31;67861;51.966;5.672;2024-03-06T13:35:05;15.5;57.8
78571;SHT31;67861;51.966;5.672;2024-03-06T13:37:38;15.6;57.3
78571;SHT31;67861;51.966;5.672;2024-03-06T13:40:08;15.7;55.9
78571;SHT31;67861;51.966;5.672;2024-03-06T13:42:39;15.8;56.6
78571;SHT31;67861;51.966;5.672;2024-03-06T13:45:10;15.9;54.6
78571;SHT31;67861;51.966;5.672;2024-03-06T13:47:42;16.0;54.8
78571;SHT31;67861;51.966;5.672;2024-03-06T13:50:13;16.0;54.4
78571;SHT31;67861;51.966;5.672;2024-03-06T13:52:42;16.1;55.0
78571;SHT31;67861;51.966;5.672;2024-03-06T13:55:11;16.2;51.1
78571;SHT31;67861;51.966;5.672;2024-03-06T13:57:40;16.3;50.8
78571;SHT31;67861;51.966;5.672;2024-03-06T14:00:10;16.3;51.6
78571;SHT31;67861;51.966;5.672;2024-03-06T14:02:43;16.4;49.7
78571;SHT31;67861;51.966;5.672;2024-03-06T14:05:12;16.4;51.9
78571;SHT31;67861;51.966;5.672;2024-03-06T14:07:41;16.5;50.5
78571;SHT31;67861;51.966;5.672;2024-03-06T14:10:10;16.5;50.7
78571;SHT31;67861;51.966;5.672;2024-03-06T14:12:40;16.5;50.5
78571;SHT31;67861;51.966;5.672;2024-03-06T14:15:09;16.6;50.9
78571;SHT31;67861;51.966;5.672;2024-03-06T14:17:38;16.7;50.5
78571;SHT31;67861;51.966;5.672;2024-03-06T14:20:08;16.7;50.0
78571;SHT31;67861;51.966;5.672;2024-03-06T14:22:38;16.8;51.0
78571;SHT31;67861;51.966;5.672;2024-03-06T14:25:07;16.8;50.2
78571;SHT31;67861;51.966;5.672;2024-03-06T14:27:38;16.8;50.4
78571;SHT31;67861;51.966;5.672;2024-03-06T14:30:08;16.9;49.5
78571;SHT31;67861;51.966;5.672;2024-03-06T14:32:38;16.9;48.0
78571;SHT31;67861;51.966;5.672;2024-03-06T14:35:07;17.0;49.5
78571;SHT31;67861;51.966;5.672;2024-03-06T14:37:36;17.0;49.1
78571;SHT31;67861;51.966;5.672;2024-03-06T14:40:06;17.1;49.1
78571;SHT31;67861;51.966;5.672;2024-03-06T14:42:35;17.2;49.7
78571;SHT31;67861;51.966;5.672;2024-03-06T14:45:03;17.2;48.3
78571;SHT31;67861;51.966;5.672;2024-03-06T14:47:32;17.3;48.1
78571;SHT31;67861;51.966;5.672;2024-03-06T14:50:04;17.3;47.3
78571;SHT31;67861;51.966;5.672;2024-03-06T14:52:33;17.3;47.3
78571;SHT31;67861;51.966;5.672;2024-03-06T14:55:02;17.4;46.4
78571;SHT31;67861;51.966;5.672;2024-03-06T14:57:37;17.4;48.1
78571;SHT31;67861;51.966;5.672;2024-03-06T15:00:06;17.4;48.4
78571;SHT31;67861;51.966;5.672;2024-03-06T15:02:35;17.5;47.8
78571;SHT31;67861;51.966;5.672;2024-03-06T15:05:04;17.5;47.2
78571;SHT31;67861;51.966;5.672;2024-03-06T15:07:33;17.6;47.4
78571;SHT31;67861;51.966;5.672;2024-03-06T15:10:01;17.6;46.3
78571;SHT31;67861;51.966;5.672;2024-03-06T15:12:30;17.6;47.0
78571;SHT31;67861;51.966;5.672;2024-03-06T15:14:58;17.7;46.5
78571;SHT31;67861;51.966;5.672;2024-03-06T15:17:30;17.7;46.5
78571;SHT31;67861;51.966;5.672;2024-03-06T15:19:59;17.7;47.1
78571;SHT31;67861;51.966;5.672;2024-03-06T15:22:28;17.7;46.1
78571;SHT31;67861;51.966;5.672;2024-03-06T15:24:56;17.7;44.3
78571;SHT31;67861;51.966;5.672;2024-03-06T15:27:27;17.7;44.7
78571;SHT31;67861;51.966;5.672;2024-03-06T15:29:56;17.7;44.7
78571;SHT31;67861;51.966;5.672;2024-03-06T15:32:24;17.7;44.7
78571;SHT31;67861;51.966;5.672;2024-03-06T15:34:53;17.6;43.7
78571;SHT31;67861;51.966;5.672;2024-03-06T15:37:24;17.6;44.6
78571;SHT31;67861;51.966;5.672;2024-03-06T15:39:54;17.6;44.6
78571;SHT31;67861;51.966;5.672;2024-03-06T15:42:23;17.5;45.2
78571;SHT31;67861;51.966;5.672;2024-03-06T15:44:52;17.5;44.8
78571;SHT31;67861;51.966;5.672;2024-03-06T15:47:21;17.5;45.3
78571;SHT31;67861;51.966;5.672;2024-03-06T15:49:51;17.4;45.5
78571;SHT31;67861;51.966;5.672;2024-03-06T15:52:21;17.4;46.1
78571;SHT31;67861;51.966;5.672;2024-03-06T15:54:50;17.4;45.5
78571;SHT31;67861;51.966;5.672;2024-03-06T15:57:19;17.3;44.7
78571;SHT31;67861;51.966;5.672;2024-03-06T15:59:48;17.3;45.6
78571;SHT31;67861;51.966;5.672;2024-03-06T16:02:17;17.3;45.6
78571;SHT31;67861;51.966;5.672;2024-03-06T16:04:45;17.2;45.6
78571;SHT31;67861;51.966;5.672;2024-03-06T16:07:14;17.2;45.9
78571;SHT31;67861;51.966;5.672;2024-03-06T16:09:42;17.2;46.0
78571;SHT31;67861;51.966;5.672;2024-03-06T16:12:10;17.1;45.8
78571;SHT31;67861;51.966;5.672;2024-03-06T16:14:39;17.1;46.1
78571;SHT31;67861;51.966;5.672;2024-03-06T16:17:08;17.0;46.1
78571;SHT31;67861;51.966;5.672;2024-03-06T16:19:38;17.0;45.5
78571;SHT31;67861;51.966;5.672;2024-03-06T16:22:09;16.9;46.2
78571;SHT31;67861;51.966;5.672;2024-03-06T16:24:37;16.9;45.4